createdAt,value
2022-09-12T00:07:49.956Z,10.30
2022-09-12T00:22:51.980Z,10.33
2022-09-12T00:37:54.019Z,10.20
2022-09-12T00:53:02.826Z,10.04
2022-09-12T01:08:06.217Z,9.86
2022-09-12T01:23:43.739Z,9.90
2022-09-12T01:38:55.319Z,10.12
2022-09-12T01:54:26.721Z,10.24
2022-09-12T02:09:44.558Z,10.17
2022-09-12T02:24:50.935Z,9.93
2022-09-12T02:39:55.372Z,9.97
2022-09-12T02:54:58.711Z,10.06
2022-09-12T03:10:18.667Z,10.07
2022-09-12T03:25:36.249Z,10.18
2022-09-12T03:40:39.232Z,10.33
2022-09-12T03:55:41.200Z,10.42
2022-09-12T04:10:43.208Z,10.45
2022-09-12T04:25:45.536Z,10.54
2022-09-12T04:40:47.948Z,10.58
2022-09-12T04:55:49.936Z,10.75
2022-09-12T05:10:51.939Z,10.72
2022-09-12T05:25:55.950Z,10.86
2022-09-12T05:41:14.662Z,10.92
2022-09-12T05:56:21.199Z,11.00
2022-09-12T06:11:26.337Z,11.10
2022-09-12T06:26:29.544Z,11.30
2022-09-12T06:41:32.344Z,11.55
2022-09-12T06:56:34.505Z,11.88
2022-09-12T07:11:38.903Z,12.13
2022-09-12T07:26:42.517Z,12.53
2022-09-12T07:41:44.741Z,12.81
2022-09-12T07:56:46.650Z,13.58
2022-09-12T08:11:48.840Z,13.75
2022-09-12T08:26:51.619Z,13.84
2022-09-12T08:42:03.409Z,14.26
2022-09-12T08:57:07.198Z,14.21
2022-09-12T09:12:21.162Z,14.56
2022-09-12T09:27:39.928Z,14.46
2022-09-12T09:42:51.178Z,14.49
2022-09-12T09:57:53.671Z,14.77
2022-09-12T10:13:21.122Z,14.57
2022-09-12T10:29:04.668Z,14.60
2022-09-12T10:44:08.453Z,14.64
2022-09-12T10:59:47.948Z,14.70
2022-09-12T11:14:54.194Z,15.29
2022-09-12T11:30:08.740Z,15.63
2022-09-12T11:45:28.322Z,15.38
2022-09-12T12:00:41.425Z,15.42
2022-09-12T12:15:48.861Z,15.63
2022-09-12T12:30:54.398Z,16.14
2022-09-12T12:46:04.062Z,16.38
2022-09-12T13:01:19.216Z,16.65
2022-09-12T13:17:02.187Z,16.90
2022-09-12T13:32:04.245Z,16.97
2022-09-12T13:47:06.374Z,17.17
2022-09-12T14:02:23.033Z,17.11
2022-09-12T14:17:33.061Z,17.07
2022-09-12T14:32:35.839Z,17.21
2022-09-12T14:47:42.412Z,17.17
2022-09-12T15:02:45.050Z,17.06
2022-09-12T15:17:47.521Z,16.92
2022-09-12T15:32:49.575Z,16.67
2022-09-12T15:47:51.529Z,16.25
2022-09-12T16:02:54.467Z,16.13
2022-09-12T16:17:56.400Z,16.04
2022-09-12T16:32:58.619Z,15.87
2022-09-12T16:48:00.619Z,15.65
2022-09-12T17:03:02.547Z,15.31
2022-09-12T17:18:04.519Z,15.15
2022-09-12T17:33:06.417Z,14.92
2022-09-12T17:48:11.536Z,14.60
2022-09-12T18:03:14.270Z,14.06
2022-09-12T18:18:16.256Z,13.39
2022-09-12T18:33:21.996Z,12.69
2022-09-12T18:48:28.487Z,12.26
2022-09-12T19:03:30.499Z,11.69
2022-09-12T19:18:34.266Z,11.32
2022-09-12T19:33:37.157Z,11.04
2022-09-12T19:48:39.089Z,10.62
2022-09-12T20:03:41.767Z,10.20
2022-09-12T20:18:45.017Z,9.85
2022-09-12T20:33:51.606Z,9.37
2022-09-12T20:48:54.589Z,9.10
2022-09-12T21:03:56.743Z,8.85
2022-09-12T21:18:59.807Z,8.58
2022-09-12T21:34:01.751Z,8.25
2022-09-12T21:49:03.708Z,7.86
2022-09-12T22:04:05.621Z,7.48
2022-09-12T22:19:07.561Z,7.35
2022-09-12T22:34:09.467Z,7.17
2022-09-12T22:49:11.446Z,6.94
2022-09-12T23:04:13.491Z,6.63
2022-09-12T23:19:15.425Z,6.46
2022-09-12T23:34:17.431Z,6.15
2022-09-12T23:49:20.050Z,5.97
